sensor_id;sensor_type;location;lat;lon;timestamp;pressure;altitude;pressure_sealevel;temperature;humidity
48386;BME280;34644;47.964;7.982;2023-12-20T00:04:55;96769.47;;;17.14;56.92
48386;BME280;34644;47.964;7.982;2023-12-20T00:11:55;96783.06;;;17.12;57.05
48386;BME280;34644;47.964;7.982;2023-12-20T00:18:55;96763.63;;;17.12;57.12
48386;BME280;34644;47.964;7.982;2023-12-20T00:25:56;96748.72;;;17.11;57.28
48386;BME280;34644;47.964;7.982;2023-12-20T00:32:56;96760.16;;;17.11;57.35
48386;BME280;34644;47.964;7.982;2023-12-20T00:39:56;96749.78;;;17.10;57.43
48386;BME280;34644;47.964;7.982;2023-12-20T00:46:57;96764.69;;;17.11;57.47
48386;BME280;34644;47.964;7.982;2023-12-20T00:53:57;96746.31;;;17.09;57.75
48386;BME280;34644;47.964;7.982;2023-12-20T01:00:57;96736.47;;;17.10;57.73
48386;BME280;34644;47.964;7.982;2023-12-20T01:07:58;96746.03;;;17.11;57.84
48386;BME280;34644;47.964;7.982;2023-12-20T01:14:58;96747.13;;;17.10;57.96
48386;BME280;34644;47.964;7.982;2023-12-20T01:21:59;96750.06;;;17.08;57.97
48386;BME280;34644;47.964;7.982;2023-12-20T01:28:59;96754.03;;;17.11;57.93
48386;BME280;34644;47.964;7.982;2023-12-20T01:35:59;96754.03;;;17.11;57.97
48386;BME280;34644;47.964;7.982;2023-12-20T01:43:01;96757.25;;;17.13;58.15
48386;BME280;34644;47.964;7.982;2023-12-20T01:50:01;96767.91;;;17.13;58.00
48386;BME280;34644;47.964;7.982;2023-12-20T01:57:05;96783.88;;;17.13;57.96
48386;BME280;34644;47.964;7.982;2023-12-20T02:04:09;96771.06;;;17.15;58.06
48386;BME280;34644;47.964;7.982;2023-12-20T02:11:10;96772.69;;;17.16;57.98
48386;BME280;34644;47.964;7.982;2023-12-20T02:18:10;96768.13;;;17.16;57.97
48386;BME280;34644;47.964;7.982;2023-12-20T02:25:10;96762.81;;;17.16;57.91
48386;BME280;34644;47.964;7.982;2023-12-20T02:32:11;96763.59;;;17.17;57.88
48386;BME280;34644;47.964;7.982;2023-12-20T02:39:11;96746.03;;;17.16;57.94
48386;BME280;34644;47.964;7.982;2023-12-20T02:46:12;96750.28;;;17.17;57.80
48386;BME280;34644;47.964;7.982;2023-12-20T02:53:14;96754.03;;;17.16;58.10
48386;BME280;34644;47.964;7.982;2023-12-20T03:00:14;96753.75;;;17.17;57.95
48386;BME280;34644;47.964;7.982;2023-12-20T03:07:15;96761.22;;;17.15;58.04
48386;BME280;34644;47.964;7.982;2023-12-20T03:14:15;96771.88;;;17.15;57.97
48386;BME280;34644;47.964;7.982;2023-12-20T03:21:16;96774.25;;;17.17;58.05
48386;BME280;34644;47.964;7.982;2023-12-20T03:28:16;96772.94;;;17.14;58.21
48386;BME280;34644;47.964;7.982;2023-12-20T03:35:16;96784.38;;;17.15;58.11
48386;BME280;34644;47.964;7.982;2023-12-20T03:42:17;96792.38;;;17.15;58.13
48386;BME280;34644;47.964;7.982;2023-12-20T03:49:17;96793.97;;;17.16;58.16
48386;BME280;34644;47.964;7.982;2023-12-20T03:56:17;96797.97;;;17.13;58.12
48386;BME280;34644;47.964;7.982;2023-12-20T04:03:18;96790.78;;;17.14;58.23
48386;BME280;34644;47.964;7.982;2023-12-20T04:10:18;96807.84;;;17.13;58.23
48386;BME280;34644;47.964;7.982;2023-12-20T04:17:18;96804.34;;;17.12;58.31
48386;BME280;34644;47.964;7.982;2023-12-20T04:24:19;96799.84;;;17.13;58.24
48386;BME280;34644;47.964;7.982;2023-12-20T04:31:19;96801.19;;;17.10;58.40
48386;BME280;34644;47.964;7.982;2023-12-20T04:38:19;96833.13;;;17.10;58.48
48386;BME280;34644;47.964;7.982;2023-12-20T04:45:20;96832.34;;;17.10;58.57
48386;BME280;34644;47.964;7.982;2023-12-20T04:52:20;96840.34;;;17.10;58.61
48386;BME280;34644;47.964;7.982;2023-12-20T04:59:20;96848.31;;;17.10;58.47
48386;BME280;34644;47.964;7.982;2023-12-20T05:06:20;96820.09;;;17.09;58.37
48386;BME280;34644;47.964;7.982;2023-12-20T05:13:21;96840.88;;;17.07;58.29
48386;BME280;34644;47.964;7.982;2023-12-20T05:20:21;96843.53;;;17.07;58.19
48386;BME280;34644;47.964;7.982;2023-12-20T05:27:21;96847.25;;;17.06;58.22
48386;BME280;34644;47.964;7.982;2023-12-20T05:34:22;96844.59;;;17.06;58.11
48386;BME280;34644;47.964;7.982;2023-12-20T05:41:22;96868.03;;;17.04;58.12
48386;BME280;34644;47.964;7.982;2023-12-20T05:48:23;96863.75;;;17.03;58.18
48386;BME280;34644;47.964;7.982;2023-12-20T05:55:23;96866.69;;;17.01;58.04
48386;BME280;34644;47.964;7.982;2023-12-20T06:02:23;96866.69;;;17.01;57.94
48386;BME280;34644;47.964;7.982;2023-12-20T06:09:23;96875.75;;;17.00;58.01
48386;BME280;34644;47.964;7.982;2023-12-20T06:16:24;96893.06;;;16.97;58.00
48386;BME280;34644;47.964;7.982;2023-12-20T06:23:24;96886.13;;;16.96;58.03
48386;BME280;34644;47.964;7.982;2023-12-20T06:30:24;96897.88;;;16.95;57.99
48386;BME280;34644;47.964;7.982;2023-12-20T06:37:25;96898.91;;;16.94;57.98
48386;BME280;34644;47.964;7.982;2023-12-20T06:44:25;96905.28;;;16.93;57.96
48386;BME280;34644;47.964;7.982;2023-12-20T06:51:26;96915.16;;;16.93;57.82
48386;BME280;34644;47.964;7.982;2023-12-20T06:58:26;96922.34;;;16.92;57.89
48386;BME280;34644;47.964;7.982;2023-12-20T07:05:26;96933.00;;;16.92;57.94
48386;BME280;34644;47.964;7.982;2023-12-20T07:12:26;96944.19;;;16.89;57.74
48386;BME280;34644;47.964;7.982;2023-12-20T07:19:27;96945.50;;;16.92;57.72
48386;BME280;34644;47.964;7.982;2023-12-20T07:26:27;96963.59;;;16.90;57.72
48386;BME280;34644;47.964;7.982;2023-12-20T07:33:27;96963.59;;;16.90;57.70
48386;BME280;34644;47.964;7.982;2023-12-20T07:40:28;96981.44;;;16.89;57.79
48386;BME280;34644;47.964;7.982;2023-12-20T07:47:28;96985.16;;;16.88;57.80
48386;BME280;34644;47.964;7.982;2023-12-20T07:54:28;96983.56;;;16.87;57.60
48386;BME280;34644;47.964;7.982;2023-12-20T08:01:28;96991.81;;;16.86;57.65
48386;BME280;34644;47.964;7.982;2023-12-20T08:08:29;96991.81;;;16.86;57.71
48386;BME280;34644;47.964;7.982;2023-12-20T08:15:29;96996.31;;;16.85;57.68
48386;BME280;34644;47.964;7.982;2023-12-20T08:22:29;97013.63;;;16.82;57.59
48386;BME280;34644;47.964;7.982;2023-12-20T08:29:30;97000.06;;;16.84;57.71
48386;BME280;34644;47.964;7.982;2023-12-20T08:36:30;97018.69;;;16.84;57.61
48386;BME280;34644;47.964;7.982;2023-12-20T08:43:30;97010.97;;;16.82;57.60
48386;BME280;34644;47.964;7.982;2023-12-20T08:50:31;97022.66;;;16.81;57.56
48386;BME280;34644;47.964;7.982;2023-12-20T08:57:31;97030.38;;;16.83;57.48
48386;BME280;34644;47.964;7.982;2023-12-20T09:04:32;97029.88;;;16.81;57.34
48386;BME280;34644;47.964;7.982;2023-12-20T09:11:32;97035.97;;;16.81;57.42
48386;BME280;34644;47.964;7.982;2023-12-20T09:18:32;97041.56;;;16.80;57.51
48386;BME280;34644;47.964;7.982;2023-12-20T09:25:33;97053.25;;;16.79;57.48
48386;BME280;34644;47.964;7.982;2023-12-20T09:32:33;97062.31;;;16.78;57.55
48386;BME280;34644;47.964;7.982;2023-12-20T09:39:34;97067.34;;;16.74;57.45
48386;BME280;34644;47.964;7.982;2023-12-20T09:46:36;97070.00;;;16.74;57.52
48386;BME280;34644;47.964;7.982;2023-12-20T09:53:39;97062.84;;;16.75;57.44
48386;BME280;34644;47.964;7.982;2023-12-20T10:00:40;97058.56;;;16.74;57.41
48386;BME280;34644;47.964;7.982;2023-12-20T10:07:40;97056.97;;;16.73;57.41
48386;BME280;34644;47.964;7.982;2023-12-20T10:14:40;97056.97;;;16.73;57.41
48386;BME280;34644;47.964;7.982;2023-12-20T10:21:41;97051.63;;;16.73;57.49
48386;BME280;34644;47.964;7.982;2023-12-20T10:28:41;97058.03;;;16.72;57.49
48386;BME280;34644;47.964;7.982;2023-12-20T10:35:42;97055.66;;;16.70;57.44
48386;BME280;34644;47.964;7.982;2023-12-20T10:42:42;97051.38;;;16.69;57.33
48386;BME280;34644;47.964;7.982;2023-12-20T10:49:42;97034.88;;;16.67;57.44
48386;BME280;34644;47.964;7.982;2023-12-20T10:56:44;97038.31;;;16.68;57.41
48386;BME280;34644;47.964;7.982;2023-12-20T11:03:50;97048.97;;;16.68;57.38
48386;BME280;34644;47.964;7.982;2023-12-20T11:18:06;97046.31;;;16.68;57.37
48386;BME280;34644;47.964;7.982;2023-12-20T11:25:10;97035.66;;;16.68;57.19
48386;BME280;34644;47.964;7.982;2023-12-20T11:39:27;97032.47;;;16.71;57.11
48386;BME280;34644;47.964;7.982;2023-12-20T11:46:28;97029.56;;;16.72;57.12
48386;BME280;34644;47.964;7.982;2023-12-20T11:53:29;97022.63;;;16.71;57.04
48386;BME280;34644;47.964;7.982;2023-12-20T12:00:30;97012.81;;;16.72;57.13
48386;BME280;34644;47.964;7.982;2023-12-20T12:07:31;97009.59;;;16.70;57.27
48386;BME280;34644;47.964;7.982;2023-12-20T12:14:32;97005.09;;;16.70;57.15
48386;BME280;34644;47.964;7.982;2023-12-20T12:21:35;97007.75;;;16.70;57.11
48386;BME280;34644;47.964;7.982;2023-12-20T12:28:36;97006.41;;;16.68;57.17
48386;BME280;34644;47.964;7.982;2023-12-20T12:35:36;97007.19;;;16.68;57.17
48386;BME280;34644;47.964;7.982;2023-12-20T12:42:37;97009.56;;;16.59;57.39
48386;BME280;34644;47.964;7.982;2023-12-20T12:49:37;97016.25;;;16.62;57.83
48386;BME280;34644;47.964;7.982;2023-12-20T12:56:40;97014.09;;;16.59;57.78
48386;BME280;34644;47.964;7.982;2023-12-20T13:03:40;97006.13;;;16.59;57.80
48386;BME280;34644;47.964;7.982;2023-12-20T13:10:41;97002.13;;;16.61;57.97
48386;BME280;34644;47.964;7.982;2023-12-20T13:17:41;96994.66;;;16.58;58.00
48386;BME280;34644;47.964;7.982;2023-12-20T13:24:41;96996.28;;;16.59;57.90
48386;BME280;34644;47.964;7.982;2023-12-20T13:31:44;97010.09;;;16.61;57.93
48386;BME280;34644;47.964;7.982;2023-12-20T13:38:44;96998.41;;;16.62;57.89
48386;BME280;34644;47.964;7.982;2023-12-20T13:45:45;97005.34;;;16.63;57.71
48386;BME280;34644;47.964;7.982;2023-12-20T13:52:45;97001.84;;;16.58;57.96
48386;BME280;34644;47.964;7.982;2023-12-20T13:59:46;96997.59;;;16.57;58.15
48386;BME280;34644;47.964;7.982;2023-12-20T14:06:46;97002.91;;;16.57;58.25
48386;BME280;34644;47.964;7.982;2023-12-20T14:13:47;96991.22;;;16.58;58.10
48386;BME280;34644;47.964;7.982;2023-12-20T14:20:47;96996.28;;;16.59;58.05
48386;BME280;34644;47.964;7.982;2023-12-20T14:27:49;96989.06;;;16.60;57.97
48386;BME280;34644;47.964;7.982;2023-12-20T14:34:49;96986.97;;;16.62;57.85
48386;BME280;34644;47.964;7.982;2023-12-20T14:41:49;96987.50;;;16.64;57.65
48386;BME280;34644;47.964;7.982;2023-12-20T14:48:49;96977.38;;;16.66;57.60
48386;BME280;34644;47.964;7.982;2023-12-20T14:55:50;96984.56;;;16.66;57.60
48386;BME280;34644;47.964;7.982;2023-12-20T15:02:53;96972.84;;;16.67;57.48
48386;BME280;34644;47.964;7.982;2023-12-20T15:09:57;96992.03;;;16.69;57.62
48386;BME280;34644;47.964;7.982;2023-12-20T15:16:57;97005.09;;;16.70;57.28
48386;BME280;34644;47.964;7.982;2023-12-20T15:23:57;97008.00;;;16.69;57.26
48386;BME280;34644;47.964;7.982;2023-12-20T15:31:05;96980.56;;;16.68;57.31
48386;BME280;34644;47.964;7.982;2023-12-20T15:38:06;96981.38;;;16.69;57.35
48386;BME280;34644;47.964;7.982;2023-12-20T15:45:07;96972.59;;;16.68;57.19
48386;BME280;34644;47.964;7.982;2023-12-20T15:52:07;96972.84;;;16.67;57.21
48386;BME280;34644;47.964;7.982;2023-12-20T15:59:07;96997.88;;;16.66;57.21
48386;BME280;34644;47.964;7.982;2023-12-20T16:06:09;96989.91;;;16.66;57.14
48386;BME280;34644;47.964;7.982;2023-12-20T16:13:10;96978.44;;;16.65;57.13
48386;BME280;34644;47.964;7.982;2023-12-20T16:20:11;96973.41;;;16.63;57.09
48386;BME280;34644;47.964;7.982;2023-12-20T16:27:11;96976.34;;;16.62;57.08
48386;BME280;34644;47.964;7.982;2023-12-20T16:34:12;96980.03;;;16.61;57.00
48386;BME280;34644;47.964;7.982;2023-12-20T16:41:12;96986.41;;;16.60;57.08
48386;BME280;34644;47.964;7.982;2023-12-20T16:48:12;96984.00;;;16.58;56.98
48386;BME280;34644;47.964;7.982;2023-12-20T16:55:13;96983.22;;;16.58;57.06
48386;BME280;34644;47.964;7.982;2023-12-20T17:02:14;96994.91;;;16.57;57.03
48386;BME280;34644;47.964;7.982;2023-12-20T17:09:14;96997.06;;;16.55;57.01
48386;BME280;34644;47.964;7.982;2023-12-20T17:16:16;97005.28;;;16.53;57.10
48386;BME280;34644;47.964;7.982;2023-12-20T17:23:16;97002.09;;;16.51;57.04
48386;BME280;34644;47.964;7.982;2023-12-20T17:30:16;96997.84;;;16.50;56.97
48386;BME280;34644;47.964;7.982;2023-12-20T17:37:16;96999.72;;;16.50;56.93
48386;BME280;34644;47.964;7.982;2023-12-20T17:44:17;97006.34;;;16.47;56.98
48386;BME280;34644;47.964;7.982;2023-12-20T17:51:17;97014.06;;;16.49;57.11
48386;BME280;34644;47.964;7.982;2023-12-20T17:58:17;97010.88;;;16.46;56.95
48386;BME280;34644;47.964;7.982;2023-12-20T18:05:18;97007.66;;;16.44;56.95
48386;BME280;34644;47.964;7.982;2023-12-20T18:12:19;97031.84;;;16.43;57.00
48386;BME280;34644;47.964;7.982;2023-12-20T18:19:19;97020.41;;;16.42;56.92
48386;BME280;34644;47.964;7.982;2023-12-20T18:26:19;97024.94;;;16.42;56.90
48386;BME280;34644;47.964;7.982;2023-12-20T18:33:19;97035.63;;;16.52;56.78
48386;BME280;34644;47.964;7.982;2023-12-20T18:40:20;97024.72;;;16.54;56.57
48386;BME280;34644;47.964;7.982;2023-12-20T18:47:20;97028.19;;;16.54;56.62
48386;BME280;34644;47.964;7.982;2023-12-20T18:54:20;97010.63;;;16.53;56.55
48386;BME280;34644;47.964;7.982;2023-12-20T19:01:22;96987.72;;;16.52;56.61
48386;BME280;34644;47.964;7.982;2023-12-20T19:08:22;96992.00;;;16.53;56.56
48386;BME280;34644;47.964;7.982;2023-12-20T19:15:22;96996.53;;;16.53;56.45
48386;BME280;34644;47.964;7.982;2023-12-20T19:22:23;96992.50;;;16.50;56.48
48386;BME280;34644;47.964;7.982;2023-12-20T19:29:24;96962.47;;;16.50;56.40
48386;BME280;34644;47.964;7.982;2023-12-20T19:36:25;96946.50;;;16.50;56.38
48386;BME280;34644;47.964;7.982;2023-12-20T19:43:28;96945.69;;;16.49;56.23
48386;BME280;34644;47.964;7.982;2023-12-20T19:50:31;96930.53;;;16.50;56.37
48386;BME280;34644;47.964;7.982;2023-12-20T19:57:31;96921.72;;;16.49;56.30
48386;BME280;34644;47.964;7.982;2023-12-20T20:04:31;96932.38;;;16.49;56.33
48386;BME280;34644;47.964;7.982;2023-12-20T20:11:32;96933.47;;;16.48;56.21
48386;BME280;34644;47.964;7.982;2023-12-20T20:18:32;96919.06;;;16.49;56.19
48386;BME280;34644;47.964;7.982;2023-12-20T20:25:33;96893.56;;;16.48;56.17
48386;BME280;34644;47.964;7.982;2023-12-20T20:32:33;96883.19;;;16.46;56.36
48386;BME280;34644;47.964;7.982;2023-12-20T20:39:33;96887.69;;;16.46;56.17
48386;BME280;34644;47.964;7.982;2023-12-20T20:46:33;96872.78;;;16.45;56.29
48386;BME280;34644;47.964;7.982;2023-12-20T20:53:34;96898.59;;;16.44;56.18
48386;BME280;34644;47.964;7.982;2023-12-20T21:00:34;96891.41;;;16.45;56.13
48386;BME280;34644;47.964;7.982;2023-12-20T21:07:35;96896.19;;;16.43;56.12
48386;BME280;34644;47.964;7.982;2023-12-20T21:14:35;96895.13;;;16.44;56.10
48386;BME280;34644;47.964;7.982;2023-12-20T21:21:35;96889.81;;;16.44;56.16
48386;BME280;34644;47.964;7.982;2023-12-20T21:28:35;96875.97;;;16.42;56.20
48386;BME280;34644;47.964;7.982;2023-12-20T21:35:36;96860.81;;;16.42;56.07
48386;BME280;34644;47.964;7.982;2023-12-20T21:42:36;96861.59;;;16.43;56.39
48386;BME280;34644;47.964;7.982;2023-12-20T21:49:37;96849.38;;;16.42;56.39
48386;BME280;34644;47.964;7.982;2023-12-20T21:56:37;96845.94;;;16.41;56.58
48386;BME280;34644;47.964;7.982;2023-12-20T22:03:37;96837.66;;;16.43;56.31
48386;BME280;34644;47.964;7.982;2023-12-20T22:10:38;96819.03;;;16.43;56.32
48386;BME280;34644;47.964;7.982;2023-12-20T22:17:38;96828.09;;;16.42;56.32
48386;BME280;34644;47.964;7.982;2023-12-20T22:24:38;96826.50;;;16.41;56.48
48386;BME280;34644;47.964;7.982;2023-12-20T22:31:39;96824.38;;;16.38;56.58
48386;BME280;34644;47.964;7.982;2023-12-20T22:38:39;96800.72;;;16.41;56.96
48386;BME280;34644;47.964;7.982;2023-12-20T22:45:39;96801.50;;;16.42;57.05
48386;BME280;34644;47.964;7.982;2023-12-20T22:52:42;96793.25;;;16.38;57.25
48386;BME280;34644;47.964;7.982;2023-12-20T22:59:42;96794.06;;;16.39;57.39
48386;BME280;34644;47.964;7.982;2023-12-20T23:06:42;96799.38;;;16.39;57.39
48386;BME280;34644;47.964;7.982;2023-12-20T23:13:43;96785.03;;;16.40;57.51
48386;BME280;34644;47.964;7.982;2023-12-20T23:20:43;96766.13;;;16.41;57.40
48386;BME280;34644;47.964;7.982;2023-12-20T23:27:43;96744.56;;;16.38;57.73
48386;BME280;34644;47.964;7.982;2023-12-20T23:34:49;96730.75;;;16.41;57.64
48386;BME280;34644;47.964;7.982;2023-12-20T23:41:50;96711.34;;;16.40;57.64
48386;BME280;34644;47.964;7.982;2023-12-20T23:48:52;96682.59;;;16.42;57.62
48386;BME280;34644;47.964;7.982;2023-12-20T23:55:53;96692.44;;;16.42;57.65
